Time;durP1;ratioP1;P1;durP2;ratioP2;P2;SDS_P1;SDS_P2;PMS_P1;PMS_P2;Temp;Humidity;BMP_temperature;BMP_pressure;BME280_temperature;BME280_humidity;BME280_pressure;Samples;Min_cycle;Max_cycle;Signal;HPM_P1;HPM_P2
2024/04/01 00:00:42;;;;;;;26.83;10.93;;;11.90;99.90;;;;;;5046779;28;20041;-68
2024/04/01 00:03:08;;;;;;;26.70;10.82;;;11.70;99.90;;;;;;5044077;28;20525;-67
2024/04/01 00:05:34;;;;;;;29.10;12.02;;;11.60;99.90;;;;;;5048806;28;20029;-68
2024/04/01 00:07:59;;;;;;;28.98;12.13;;;11.60;99.90;;;;;;5047900;28;20033;-69
2024/04/01 00:10:25;;;;;;;26.02;11.65;;;11.70;99.90;;;;;;5048127;28;20033;-68
2024/04/01 00:12:53;;;;;;;25.23;11.15;;;11.70;99.90;;;;;;5044807;28;20486;-68
2024/04/01 00:15:19;;;;;;;25.05;12.02;;;11.70;99.90;;;;;;5047267;28;20410;-68
2024/04/01 00:17:45;;;;;;;27.70;12.02;;;11.70;99.90;;;;;;5047652;28;20059;-68
2024/04/01 00:20:11;;;;;;;35.90;12.43;;;11.60;99.90;;;;;;5045813;28;20037;-68
2024/04/01 00:22:37;;;;;;;26.77;11.32;;;11.60;99.90;;;;;;5047618;28;20025;-67
2024/04/01 00:25:04;;;;;;;28.17;12.75;;;11.60;99.90;;;;;;5047333;28;20461;-68
2024/04/01 00:27:29;;;;;;;24.25;11.13;;;11.60;99.90;;;;;;5046877;28;20521;-67
2024/04/01 00:29:55;;;;;;;24.88;11.02;;;11.60;99.90;;;;;;5047478;28;20037;-68
2024/04/01 00:32:20;;;;;;;24.25;11.70;;;11.60;99.90;;;;;;5046947;28;20033;-67
2024/04/01 00:34:46;;;;;;;27.20;11.60;;;11.50;99.90;;;;;;5045811;28;20033;-68
2024/04/01 00:37:12;;;;;;;27.23;12.38;;;11.50;99.90;;;;;;5045572;28;20127;-68
2024/04/01 00:39:38;;;;;;;24.30;11.55;;;11.40;99.90;;;;;;5047392;28;20029;-68
2024/04/01 00:42:04;;;;;;;25.63;11.50;;;11.30;99.90;;;;;;5046941;28;20496;-67
2024/04/01 00:44:30;;;;;;;27.55;12.00;;;11.30;99.90;;;;;;5046813;28;20183;-67
2024/04/01 00:46:56;;;;;;;25.17;10.98;;;11.30;99.90;;;;;;5046981;28;20537;-67
2024/04/01 00:49:22;;;;;;;29.50;11.93;;;11.30;99.90;;;;;;5045736;28;20021;-67
2024/04/01 00:51:49;;;;;;;26.35;11.13;;;11.30;99.90;;;;;;5045276;28;20021;-68
2024/04/01 00:54:15;;;;;;;24.35;12.00;;;11.40;99.90;;;;;;5044760;28;20583;-68
2024/04/01 00:56:45;;;;;;;24.50;11.38;;;11.30;99.90;;;;;;5046025;28;20044;-68
2024/04/01 00:59:12;;;;;;;34.53;11.68;;;11.30;99.90;;;;;;5047258;28;20029;-68
2024/04/01 01:01:38;;;;;;;31.70;11.48;;;11.40;99.90;;;;;;5049210;28;20367;-68
2024/04/01 01:04:05;;;;;;;28.80;12.35;;;11.30;99.90;;;;;;5049023;28;20078;-68
2024/04/01 01:06:32;;;;;;;28.35;11.43;;;11.30;99.90;;;;;;5046776;28;20036;-68
2024/04/01 01:08:58;;;;;;;23.70;11.18;;;11.30;99.90;;;;;;5046740;28;20056;-68
2024/04/01 01:11:24;;;;;;;30.95;11.85;;;11.30;99.90;;;;;;5044013;28;20536;-68
2024/04/01 01:13:50;;;;;;;28.42;11.77;;;11.30;99.90;;;;;;5048533;28;20102;-68
2024/04/01 01:16:16;;;;;;;23.42;11.93;;;11.30;99.90;;;;;;5046958;28;20028;-68
2024/04/01 01:18:42;;;;;;;30.90;11.75;;;11.30;99.90;;;;;;5046633;28;20486;-68
2024/04/01 01:21:08;;;;;;;25.27;11.40;;;11.30;99.90;;;;;;5045516;28;20643;-68
2024/04/01 01:23:34;;;;;;;27.67;12.50;;;11.30;99.90;;;;;;5077047;28;20033;-68
2024/04/01 01:26:00;;;;;;;28.48;11.95;;;11.20;99.90;;;;;;5046448;28;20305;-67
2024/04/01 01:28:27;;;;;;;30.95;12.45;;;11.20;99.90;;;;;;5045404;28;20104;-68
2024/04/01 01:30:52;;;;;;;24.52;12.45;;;11.20;99.90;;;;;;5045036;28;20740;-69
2024/04/01 01:33:18;;;;;;;28.00;12.48;;;11.20;99.90;;;;;;5045064;28;20064;-68
2024/04/01 01:35:44;;;;;;;29.05;10.75;;;11.20;99.90;;;;;;5046089;28;20037;-69
2024/04/01 01:38:12;;;;;;;28.60;12.80;;;11.20;99.90;;;;;;5042194;28;20124;-68
2024/04/01 01:40:39;;;;;;;31.95;12.85;;;11.20;99.90;;;;;;5046808;28;20028;-67
2024/04/01 01:43:04;;;;;;;30.13;12.38;;;11.10;99.90;;;;;;5046122;28;20041;-68
2024/04/01 01:45:30;;;;;;;26.38;11.38;;;11.10;99.90;;;;;;5044518;28;20109;-67
2024/04/01 01:47:56;;;;;;;31.42;11.90;;;11.10;99.90;;;;;;5043862;28;20028;-68
2024/04/01 01:50:22;;;;;;;21.75;11.82;;;11.10;99.90;;;;;;5044709;28;20052;-68
2024/04/01 01:52:47;;;;;;;27.90;11.85;;;11.00;99.90;;;;;;5044520;28;20062;-67
2024/04/01 01:55:13;;;;;;;27.27;12.63;;;11.10;99.90;;;;;;5047322;28;20090;-68
2024/04/01 01:57:39;;;;;;;31.50;12.95;;;11.00;99.90;;;;;;5046371;28;20063;-68
2024/04/01 02:00:05;;;;;;;28.50;12.35;;;11.00;99.90;;;;;;5045925;28;20029;-68
2024/04/01 02:02:32;;;;;;;27.50;11.70;;;11.00;99.90;;;;;;5045808;28;20095;-68
2024/04/01 02:04:58;;;;;;;26.67;11.70;;;11.00;99.90;;;;;;5050087;28;20025;-68
2024/04/01 02:07:23;;;;;;;23.42;11.57;;;11.10;99.90;;;;;;5048690;28;20118;-68
2024/04/01 02:09:49;;;;;;;30.92;11.73;;;11.00;99.90;;;;;;5050213;28;20060;-68
2024/04/01 02:12:14;;;;;;;22.98;11.70;;;11.10;99.90;;;;;;5049564;28;20040;-67
2024/04/01 02:14:40;;;;;;;28.13;11.63;;;11.10;99.90;;;;;;5049233;28;20440;-67
2024/04/01 02:17:09;;;;;;;28.05;12.20;;;11.00;99.90;;;;;;5049031;28;20027;-68
2024/04/01 02:19:35;;;;;;;27.95;12.18;;;11.00;99.90;;;;;;5049495;28;20067;-68
2024/04/01 02:22:02;;;;;;;30.20;11.02;;;11.00;99.90;;;;;;5049213;28;20031;-68
2024/04/01 02:24:28;;;;;;;27.10;11.70;;;11.00;99.90;;;;;;5049377;28;20033;-68
2024/04/01 02:26:53;;;;;;;28.15;12.63;;;11.00;99.90;;;;;;5049375;28;20557;-67
2024/04/01 02:29:20;;;;;;;31.48;11.82;;;11.00;99.90;;;;;;5049427;28;20040;-68
2024/04/01 02:31:45;;;;;;;26.80;12.15;;;11.00;99.90;;;;;;5044477;28;20108;-67
2024/04/01 02:34:11;;;;;;;25.17;12.25;;;11.00;99.90;;;;;;5048051;28;20105;-68
2024/04/01 02:36:36;;;;;;;28.25;12.20;;;11.00;99.90;;;;;;5048302;28;20127;-67
2024/04/01 02:39:04;;;;;;;27.80;11.80;;;10.90;99.90;;;;;;5048865;28;20033;-68
2024/04/01 02:41:30;;;;;;;26.52;11.70;;;11.00;99.90;;;;;;5047550;28;20061;-68
2024/04/01 02:43:56;;;;;;;23.98;11.02;;;11.00;99.90;;;;;;5049557;28;20044;-68
2024/04/01 02:46:22;;;;;;;26.45;11.60;;;11.00;99.90;;;;;;5049386;28;20025;-67
2024/04/01 02:48:48;;;;;;;32.90;12.73;;;11.00;99.90;;;;;;5048795;28;20017;-68
2024/04/01 02:51:14;;;;;;;26.10;12.05;;;11.10;99.90;;;;;;5047724;28;20548;-67
2024/04/01 02:53:47;;;;;;;27.52;11.88;;;11.00;99.90;;;;;;5048611;28;20584;-68
2024/04/01 02:56:16;;;;;;;28.65;11.63;;;11.00;99.90;;;;;;5048750;28;20094;-68
2024/04/01 02:58:43;;;;;;;24.00;11.68;;;11.00;99.90;;;;;;5049187;28;20017;-67
2024/04/01 03:01:09;;;;;;;28.90;11.10;;;11.00;99.90;;;;;;5049464;28;20573;-68
2024/04/01 03:03:35;;;;;;;25.58;12.32;;;11.00;99.90;;;;;;5046870;28;20099;-67
2024/04/01 03:06:01;;;;;;;31.60;13.48;;;11.00;99.90;;;;;;5050779;28;20029;-68
2024/04/01 03:08:27;;;;;;;34.60;12.75;;;11.00;99.90;;;;;;5049153;28;20025;-68
2024/04/01 03:11:03;;;;;;;30.88;12.68;;;11.00;99.90;;;;;;5048550;28;20024;-67
2024/04/01 03:13:29;;;;;;;27.20;12.45;;;11.00;99.90;;;;;;5042681;28;20025;-68
2024/04/01 03:15:55;;;;;;;24.40;12.07;;;11.00;99.90;;;;;;5048663;28;20408;-67
2024/04/01 03:18:22;;;;;;;27.60;12.52;;;11.00;99.90;;;;;;5048534;28;20033;-68
2024/04/01 03:20:48;;;;;;;28.92;12.02;;;11.00;99.90;;;;;;5046445;28;20100;-68
2024/04/01 03:23:14;;;;;;;24.25;10.95;;;11.00;99.90;;;;;;5048413;28;20036;-67
2024/04/01 03:25:41;;;;;;;29.05;10.75;;;11.00;99.90;;;;;;5049291;28;20509;-68
2024/04/01 03:28:06;;;;;;;28.17;11.68;;;11.00;99.90;;;;;;5050363;28;20060;-67
2024/04/01 03:30:33;;;;;;;25.25;12.00;;;11.00;99.90;;;;;;5046686;28;20056;-68
2024/04/01 03:32:59;;;;;;;33.00;12.82;;;11.00;99.90;;;;;;5047034;28;20521;-67
2024/04/01 03:35:24;;;;;;;25.60;11.52;;;11.00;99.90;;;;;;5047762;28;20059;-68
2024/04/01 03:37:50;;;;;;;22.88;12.63;;;11.00;99.90;;;;;;5048131;28;20476;-68
2024/04/01 03:40:15;;;;;;;30.52;12.82;;;11.00;99.90;;;;;;5047364;28;20512;-68
2024/04/01 03:42:41;;;;;;;28.13;12.68;;;10.90;99.90;;;;;;5047573;28;20032;-67
2024/04/01 03:45:07;;;;;;;27.17;11.95;;;11.00;99.90;;;;;;5047979;28;20025;-69
2024/04/01 03:47:36;;;;;;;27.48;12.23;;;11.00;99.90;;;;;;5047680;28;20057;-68
2024/04/01 03:50:03;;;;;;;23.52;11.52;;;10.90;99.90;;;;;;5046435;28;20028;-67
2024/04/01 03:52:28;;;;;;;23.83;11.80;;;10.90;99.90;;;;;;5049353;28;20060;-68
2024/04/01 03:54:54;;;;;;;20.50;11.75;;;10.90;99.90;;;;;;5075644;28;20564;-67
2024/04/01 03:57:20;;;;;;;28.17;12.73;;;10.90;99.90;;;;;;5048068;28;20120;-69
2024/04/01 03:59:45;;;;;;;25.70;12.05;;;10.90;99.90;;;;;;5044523;28;20644;-68
2024/04/01 04:02:11;;;;;;;29.35;13.38;;;10.90;99.90;;;;;;5047464;28;20025;-67
2024/04/01 04:04:36;;;;;;;29.90;12.13;;;10.90;99.90;;;;;;5047927;28;20413;-67
2024/04/01 04:07:02;;;;;;;29.65;12.25;;;10.90;99.90;;;;;;5047804;28;20028;-67
2024/04/01 04:09:28;;;;;;;28.60;12.13;;;10.90;99.90;;;;;;5047859;28;20047;-68
2024/04/01 04:11:54;;;;;;;24.13;12.60;;;11.00;99.90;;;;;;5044847;28;21130;-68
2024/04/01 04:14:24;;;;;;;30.05;11.65;;;11.00;99.90;;;;;;5044763;28;20033;-68
2024/04/01 04:16:51;;;;;;;27.55;12.10;;;11.00;99.90;;;;;;5046556;28;20020;-68
2024/04/01 04:19:18;;;;;;;30.58;13.30;;;11.00;99.90;;;;;;5045900;28;20029;-67
2024/04/01 04:21:44;;;;;;;33.58;13.40;;;11.00;99.90;;;;;;5047165;28;20040;-68
2024/04/01 04:24:16;;;;;;;26.60;12.73;;;11.10;99.90;;;;;;5075431;28;20071;-68
2024/04/01 04:26:42;;;;;;;29.13;12.50;;;11.00;99.90;;;;;;5042908;28;20034;-68
2024/04/01 04:29:09;;;;;;;30.27;12.68;;;11.00;99.90;;;;;;5046194;28;20017;-68
2024/04/01 04:31:35;;;;;;;23.73;13.07;;;11.00;99.90;;;;;;5046336;28;20686;-67
2024/04/01 04:34:01;;;;;;;28.88;12.85;;;11.10;99.90;;;;;;5046518;28;20032;-67
2024/04/01 04:36:26;;;;;;;24.70;13.50;;;11.00;99.90;;;;;;5047136;28;20457;-67
2024/04/01 04:38:55;;;;;;;30.92;14.02;;;11.10;99.90;;;;;;5047735;28;20033;-68
2024/04/01 04:41:22;;;;;;;27.88;12.93;;;11.10;99.90;;;;;;5046655;28;20072;-68
2024/04/01 04:43:48;;;;;;;27.70;13.38;;;11.10;99.90;;;;;;5046625;28;20432;-68
2024/04/01 04:46:14;;;;;;;29.35;12.63;;;11.10;99.90;;;;;;5045986;28;20051;-69
2024/04/01 04:48:41;;;;;;;28.45;14.00;;;11.10;99.90;;;;;;5048086;28;20029;-68
2024/04/01 04:51:07;;;;;;;28.58;14.10;;;11.00;99.90;;;;;;5040702;28;20103;-68
2024/04/01 04:53:33;;;;;;;25.75;13.23;;;11.00;99.90;;;;;;5047259;28;20053;-68
2024/04/01 04:55:59;;;;;;;32.53;13.80;;;11.10;99.90;;;;;;5046531;28;20119;-65
2024/04/01 04:58:24;;;;;;;30.67;14.57;;;11.10;99.90;;;;;;5046419;28;20148;-64
2024/04/01 05:00:50;;;;;;;30.05;14.43;;;11.10;99.90;;;;;;5045584;28;20031;-65
2024/04/01 05:03:16;;;;;;;23.73;13.23;;;11.20;99.90;;;;;;5047994;28;20033;-65
2024/04/01 05:05:41;;;;;;;29.83;14.65;;;11.10;99.90;;;;;;5046693;28;20029;-65
2024/04/01 05:08:07;;;;;;;27.73;14.30;;;11.10;99.90;;;;;;5049397;28;20551;-65
2024/04/01 05:10:34;;;;;;;32.30;15.40;;;11.10;99.90;;;;;;5044038;28;20218;-65
2024/04/01 05:12:59;;;;;;;32.30;14.98;;;11.10;99.90;;;;;;5046659;28;20052;-65
2024/04/01 05:15:25;;;;;;;28.30;13.43;;;11.10;99.90;;;;;;5046467;28;20059;-65
2024/04/01 05:17:51;;;;;;;36.38;15.38;;;11.10;99.90;;;;;;5046793;28;20059;-65
2024/04/01 05:20:17;;;;;;;28.60;14.38;;;11.10;99.90;;;;;;5045582;28;20099;-65
2024/04/01 05:22:42;;;;;;;35.63;16.38;;;11.10;99.90;;;;;;5046573;28;20473;-65
2024/04/01 05:25:08;;;;;;;28.40;14.05;;;11.10;99.90;;;;;;5045469;28;20033;-65
2024/04/01 05:27:34;;;;;;;35.05;15.13;;;11.10;99.90;;;;;;5046341;28;20029;-65
2024/04/01 05:30:03;;;;;;;38.40;15.68;;;11.20;99.90;;;;;;5045566;28;20132;-65
2024/04/01 05:32:33;;;;;;;30.90;14.70;;;11.20;99.90;;;;;;5046795;28;20033;-65
2024/04/01 05:35:00;;;;;;;30.30;15.38;;;11.20;99.90;;;;;;5045220;28;20041;-65
2024/04/01 05:37:25;;;;;;;38.50;15.50;;;11.20;99.90;;;;;;5043022;28;20037;-65
2024/04/01 05:39:52;;;;;;;41.70;15.73;;;11.20;99.90;;;;;;5048918;28;20040;-65
2024/04/01 05:42:21;;;;;;;29.30;14.13;;;11.20;99.90;;;;;;5048373;28;20033;-65
2024/04/01 05:44:47;;;;;;;30.02;14.43;;;11.30;99.90;;;;;;5050569;28;20021;-65
2024/04/01 05:47:13;;;;;;;30.15;15.50;;;11.30;99.90;;;;;;5051809;28;20646;-65
2024/04/01 05:49:39;;;;;;;29.98;14.70;;;11.30;99.90;;;;;;5050891;28;20021;-65
2024/04/01 05:52:05;;;;;;;31.33;15.13;;;11.30;99.90;;;;;;5049216;28;20116;-65
2024/04/01 05:54:31;;;;;;;31.63;15.75;;;11.30;99.90;;;;;;5050631;28;20575;-65
2024/04/01 05:56:57;;;;;;;35.03;16.08;;;11.30;99.90;;;;;;5050199;28;20055;-65
2024/04/01 05:59:25;;;;;;;25.98;14.60;;;11.30;99.90;;;;;;5047940;28;20047;-65
2024/04/01 06:01:51;;;;;;;37.37;16.07;;;11.30;99.90;;;;;;5049879;28;20021;-65
2024/04/01 06:04:17;;;;;;;31.27;14.80;;;11.40;99.90;;;;;;5049169;28;20017;-65
2024/04/01 06:06:42;;;;;;;31.42;16.33;;;11.30;99.90;;;;;;5045904;28;20032;-65
2024/04/01 06:09:08;;;;;;;35.28;16.52;;;11.40;99.90;;;;;;5048496;28;20060;-65
2024/04/01 06:11:33;;;;;;;32.38;15.80;;;11.30;99.90;;;;;;5048270;28;20037;-65
2024/04/01 06:13:59;;;;;;;30.27;14.85;;;11.40;99.90;;;;;;5048717;28;20490;-65
2024/04/01 06:16:26;;;;;;;39.78;15.68;;;11.40;99.90;;;;;;5048458;28;20143;-65
2024/04/01 06:18:51;;;;;;;32.25;16.38;;;11.40;99.90;;;;;;5049982;28;20541;-65
2024/04/01 06:21:17;;;;;;;31.02;15.55;;;11.50;99.90;;;;;;5049583;28;20033;-65
2024/04/01 06:23:42;;;;;;;32.55;15.13;;;11.50;99.90;;;;;;5049969;28;20486;-65
2024/04/01 06:26:08;;;;;;;39.13;16.58;;;11.50;99.90;;;;;;5049537;28;20053;-65
2024/04/01 06:28:33;;;;;;;27.15;14.55;;;11.50;99.90;;;;;;5048783;28;20028;-65
2024/04/01 06:30:59;;;;;;;34.70;15.15;;;11.50;99.90;;;;;;5053387;28;20124;-65
2024/04/01 06:33:25;;;;;;;29.55;15.98;;;11.50;99.90;;;;;;5043309;28;20064;-65
2024/04/01 06:36:00;;;;;;;29.35;15.15;;;11.50;99.90;;;;;;5048854;28;20033;-65
2024/04/01 06:38:26;;;;;;;34.08;15.65;;;11.50;99.90;;;;;;5049660;28;20059;-65
2024/04/01 06:40:51;;;;;;;31.67;15.10;;;11.50;99.90;;;;;;5049595;28;20075;-65
2024/04/01 06:43:17;;;;;;;28.55;15.75;;;11.50;99.90;;;;;;5049930;28;20516;-65
2024/04/01 06:46:00;;;;;;;27.75;15.43;;;11.50;99.90;;;;;;5049384;28;20032;-65
2024/04/01 06:48:26;;;;;;;36.17;16.50;;;11.50;99.90;;;;;;5068670;28;20086;-65
2024/04/01 06:50:52;;;;;;;33.55;15.27;;;11.40;99.90;;;;;;5047607;28;20029;-65
2024/04/01 06:53:18;;;;;;;31.45;16.25;;;11.40;99.90;;;;;;5050078;28;20028;-65
2024/04/01 06:55:45;;;;;;;30.92;15.07;;;11.40;99.90;;;;;;5049451;28;20186;-65
2024/04/01 06:58:11;;;;;;;33.28;16.38;;;11.50;99.90;;;;;;5050340;28;20612;-65
2024/04/01 07:00:36;;;;;;;35.47;16.88;;;11.50;99.90;;;;;;5049034;28;20112;-65
2024/04/01 07:03:02;;;;;;;35.75;16.98;;;11.50;99.90;;;;;;5049590;28;20025;-65
2024/04/01 07:05:30;;;;;;;35.60;16.88;;;11.60;99.90;;;;;;5048944;28;20029;-65
2024/04/01 07:07:56;;;;;;;35.25;16.83;;;11.60;99.90;;;;;;5046620;28;20045;-65
2024/04/01 07:10:21;;;;;;;35.83;18.60;;;11.60;99.90;;;;;;5050185;28;20552;-65
2024/04/01 07:12:47;;;;;;;36.33;17.48;;;11.70;99.90;;;;;;5052095;28;20017;-65
2024/04/01 07:15:13;;;;;;;37.30;17.13;;;11.70;99.90;;;;;;5047371;28;20037;-65
2024/04/01 07:17:39;;;;;;;32.38;17.02;;;11.70;99.90;;;;;;5048206;28;20378;-65
2024/04/01 07:20:05;;;;;;;38.92;18.00;;;11.70;99.90;;;;;;5048662;28;20036;-65
2024/04/01 07:22:31;;;;;;;37.45;17.42;;;11.70;99.90;;;;;;5048947;28;20049;-65
2024/04/01 07:24:57;;;;;;;37.53;17.98;;;11.70;99.90;;;;;;5046334;28;20048;-65
2024/04/01 07:27:23;;;;;;;35.97;18.92;;;11.70;99.90;;;;;;5048024;28;20481;-65
2024/04/01 07:29:49;;;;;;;32.83;17.58;;;11.70;99.90;;;;;;5048286;28;20021;-65
2024/04/01 07:32:14;;;;;;;34.00;18.02;;;11.80;99.90;;;;;;5047696;28;20032;-65
2024/04/01 07:34:40;;;;;;;41.20;17.80;;;11.80;99.90;;;;;;5046764;28;20094;-65
2024/04/01 07:37:06;;;;;;;37.92;17.42;;;11.90;99.90;;;;;;5048499;28;20024;-65
2024/04/01 07:39:31;;;;;;;41.92;18.40;;;11.90;99.90;;;;;;5049220;28;20061;-65
2024/04/01 07:41:57;;;;;;;41.10;18.08;;;12.00;99.90;;;;;;5046738;28;20413;-65
2024/04/01 07:44:22;;;;;;;47.97;19.95;;;12.00;99.90;;;;;;5046458;28;20056;-65
2024/04/01 07:46:48;;;;;;;37.80;18.42;;;12.00;99.90;;;;;;5048371;28;20382;-65
2024/04/01 07:49:13;;;;;;;39.80;17.98;;;12.00;99.90;;;;;;5048181;28;20013;-65
2024/04/01 07:51:39;;;;;;;38.88;17.80;;;12.00;99.90;;;;;;5047644;28;20058;-65
2024/04/01 07:54:05;;;;;;;41.55;19.17;;;12.00;99.90;;;;;;5046468;28;20029;-65
2024/04/01 07:56:30;;;;;;;39.92;19.73;;;12.10;99.90;;;;;;5052034;28;20084;-65
2024/04/01 07:58:56;;;;;;;42.53;17.77;;;12.10;99.90;;;;;;5041902;28;20025;-65
2024/04/01 08:01:22;;;;;;;49.55;19.38;;;12.00;99.90;;;;;;5047340;28;20765;-65
2024/04/01 08:03:48;;;;;;;37.92;18.30;;;12.10;99.90;;;;;;5048976;28;20075;-65
2024/04/01 08:06:13;;;;;;;34.35;18.17;;;12.10;99.90;;;;;;5047579;28;20025;-65
2024/04/01 08:08:39;;;;;;;39.88;18.65;;;12.10;99.90;;;;;;5047974;28;21602;-65
2024/04/01 08:11:05;;;;;;;36.20;18.48;;;12.00;99.90;;;;;;5048033;28;20029;-65
2024/04/01 08:13:31;;;;;;;35.13;18.25;;;12.10;99.90;;;;;;5047819;28;20025;-65
2024/04/01 08:15:58;;;;;;;35.33;17.15;;;12.10;99.90;;;;;;5045074;28;20048;-65
2024/04/01 08:18:24;;;;;;;39.70;17.60;;;12.10;99.90;;;;;;5047140;28;20390;-65
2024/04/01 08:20:49;;;;;;;42.05;17.95;;;12.10;99.90;;;;;;5047354;28;20032;-65
2024/04/01 08:23:15;;;;;;;33.80;17.15;;;12.20;99.90;;;;;;5047078;28;20627;-65
2024/04/01 08:25:41;;;;;;;36.03;18.65;;;12.30;99.90;;;;;;5047078;28;20084;-66
2024/04/01 08:28:06;;;;;;;33.00;17.63;;;12.30;99.90;;;;;;5047042;28;20029;-65
2024/04/01 08:30:32;;;;;;;41.28;18.48;;;12.40;99.90;;;;;;5047364;28;20532;-65
2024/04/01 08:32:57;;;;;;;36.35;17.55;;;12.40;99.90;;;;;;5046213;28;20498;-65
2024/04/01 08:35:23;;;;;;;34.75;17.67;;;12.40;99.90;;;;;;5048134;28;20028;-65
2024/04/01 08:37:48;;;;;;;29.05;16.60;;;12.50;99.90;;;;;;5059414;28;20021;-65
2024/04/01 08:40:14;;;;;;;31.80;17.13;;;12.60;99.90;;;;;;5046128;28;20516;-65
2024/04/01 08:42:44;;;;;;;36.13;17.67;;;12.60;99.90;;;;;;5046788;28;20106;-65
2024/04/01 08:45:14;;;;;;;31.92;16.70;;;12.60;99.90;;;;;;5046773;28;20116;-65
2024/04/01 08:47:44;;;;;;;28.27;16.42;;;12.70;99.90;;;;;;5047048;28;20645;-65
2024/04/01 08:50:22;;;;;;;40.55;17.48;;;12.70;99.90;;;;;;5045364;28;20021;-65
2024/04/01 08:53:02;;;;;;;32.35;17.33;;;12.70;99.90;;;;;;5042860;28;20131;-65
2024/04/01 08:55:28;;;;;;;38.85;16.05;;;12.60;99.90;;;;;;5046553;28;20086;-65
2024/04/01 08:57:55;;;;;;;32.60;17.25;;;12.50;99.90;;;;;;5045547;28;20029;-65
2024/04/01 09:00:22;;;;;;;30.10;17.40;;;12.60;99.90;;;;;;5046823;28;20070;-65
2024/04/01 09:02:48;;;;;;;33.15;15.98;;;12.60;99.90;;;;;;5046980;28;20044;-65
2024/04/01 09:05:14;;;;;;;33.42;15.82;;;12.70;99.90;;;;;;5045550;28;20501;-65
2024/04/01 09:07:40;;;;;;;33.63;17.10;;;12.70;99.90;;;;;;5046288;28;20135;-65
2024/04/01 09:10:06;;;;;;;35.33;17.77;;;12.80;99.90;;;;;;5046081;28;20035;-65
2024/04/01 09:12:32;;;;;;;32.45;16.88;;;12.80;99.90;;;;;;5051566;28;20021;-65
2024/04/01 09:14:58;;;;;;;44.17;18.95;;;12.90;99.90;;;;;;5050809;28;20134;-65
2024/04/01 09:17:28;;;;;;;46.65;20.42;;;12.90;99.90;;;;;;5049488;28;20630;-65
2024/04/01 09:20:01;;;;;;;39.58;19.30;;;12.90;99.90;;;;;;5050770;28;20106;-65
2024/04/01 09:22:26;;;;;;;49.10;19.63;;;13.00;99.90;;;;;;5046440;28;20025;-65
2024/04/01 09:24:52;;;;;;;38.58;18.30;;;13.00;99.90;;;;;;5054454;28;20616;-65
2024/04/01 09:27:17;;;;;;;37.25;17.88;;;12.90;99.90;;;;;;5051714;28;20108;-65
2024/04/01 09:29:43;;;;;;;46.35;17.27;;;13.00;99.90;;;;;;5050925;28;20029;-65
2024/04/01 09:32:09;;;;;;;34.20;18.00;;;12.90;99.90;;;;;;5050904;28;20028;-65
2024/04/01 09:34:35;;;;;;;39.17;17.50;;;12.90;99.90;;;;;;5053458;28;20025;-65
2024/04/01 09:37:01;;;;;;;34.78;16.80;;;12.90;99.90;;;;;;5049388;28;20051;-65
2024/04/01 09:39:27;;;;;;;33.33;16.88;;;12.90;99.90;;;;;;5050099;28;20486;-65
2024/04/01 09:41:53;;;;;;;35.20;16.33;;;12.90;99.90;;;;;;5051381;28;20285;-65
2024/04/01 09:44:18;;;;;;;37.75;17.42;;;12.90;99.90;;;;;;5051303;28;20055;-65
2024/04/01 09:46:44;;;;;;;30.92;16.63;;;13.00;99.90;;;;;;5051128;28;20028;-65
2024/04/01 09:49:11;;;;;;;33.67;16.95;;;13.00;99.90;;;;;;5050664;28;20029;-65
2024/04/01 09:51:37;;;;;;;34.83;17.90;;;13.00;99.90;;;;;;5046485;28;20525;-66
2024/04/01 09:54:03;;;;;;;35.00;18.85;;;12.90;99.90;;;;;;5050946;28;20036;-65
2024/04/01 09:56:34;;;;;;;44.78;21.38;;;13.00;99.90;;;;;;5050713;28;20040;-65
2024/04/01 09:59:24;;;;;;;39.38;20.48;;;13.10;99.90;;;;;;5050325;28;20040;-65
2024/04/01 10:01:55;;;;;;;41.45;20.83;;;13.10;99.90;;;;;;5046696;28;20083;-65
2024/04/01 10:04:55;;;;;;;44.00;22.20;;;13.20;99.90;;;;;;5049707;28;20473;-65
2024/04/01 10:07:30;;;;;;;36.90;20.20;;;13.20;99.90;;;;;;5049706;28;20068;-65
2024/04/01 10:10:08;;;;;;;46.75;21.48;;;13.20;99.90;;;;;;5049583;28;20051;-65
2024/04/01 10:13:13;;;;;;;42.97;23.13;;;13.20;99.90;;;;;;5048096;28;20029;-65
2024/04/01 10:15:53;;;;;;;44.72;21.90;;;13.20;99.90;;;;;;5047654;28;20409;-65
2024/04/01 10:18:54;;;;;;;42.55;21.83;;;13.30;99.90;;;;;;5051299;28;20029;-65
2024/04/01 10:21:23;;;;;;;48.45;22.92;;;13.40;99.90;;;;;;5047401;28;20040;-64
2024/04/01 10:23:51;;;;;;;50.58;24.13;;;13.30;99.90;;;;;;5049359;28;20757;-65
2024/04/01 10:26:49;;;;;;;49.80;23.70;;;13.40;99.90;;;;;;5048577;28;20021;-65
2024/04/01 10:29:52;;;;;;;44.40;23.23;;;13.40;99.90;;;;;;5049444;28;20028;-65
2024/04/01 10:32:36;;;;;;;48.35;24.67;;;13.50;99.90;;;;;;5046454;28;20456;-65
2024/04/01 10:35:08;;;;;;;51.00;26.17;;;13.40;99.90;;;;;;5049147;28;20449;-65
2024/04/01 10:37:37;;;;;;;49.50;23.80;;;13.30;99.90;;;;;;5049390;28;20572;-65
2024/04/01 10:40:05;;;;;;;51.95;24.52;;;13.30;99.90;;;;;;5050391;28;20035;-65
2024/04/01 10:42:58;;;;;;;43.60;22.95;;;13.30;99.90;;;;;;5049236;28;20029;-65
2024/04/01 10:45:49;;;;;;;49.10;24.58;;;13.30;99.90;;;;;;5046301;28;20033;-65
2024/04/01 10:48:27;;;;;;;42.30;23.83;;;13.40;99.90;;;;;;5046965;28;20025;-65
2024/04/01 10:51:36;;;;;;;52.75;24.75;;;13.30;99.90;;;;;;5045825;28;20576;-65
2024/04/01 10:54:06;;;;;;;49.00;25.48;;;13.20;99.90;;;;;;5046576;28;20558;-65
2024/04/01 10:56:45;;;;;;;52.63;24.90;;;13.30;99.90;;;;;;5051811;28;20055;-65
2024/04/01 10:59:29;;;;;;;52.25;25.38;;;13.20;99.90;;;;;;5048865;28;20051;-65
2024/04/01 11:02:33;;;;;;;51.17;24.90;;;13.30;99.90;;;;;;5044895;28;20021;-65
2024/04/01 11:05:22;;;;;;;49.67;24.52;;;13.10;99.90;;;;;;5034768;28;20044;-65
2024/04/01 11:07:54;;;;;;;51.55;24.02;;;13.00;99.90;;;;;;5048829;28;20071;-65
2024/04/01 11:10:27;;;;;;;39.63;23.02;;;13.00;99.90;;;;;;5048516;28;20029;-65
2024/04/01 11:13:06;;;;;;;36.97;22.60;;;12.90;99.90;;;;;;5045473;28;20029;-65
2024/04/01 11:15:32;;;;;;;43.25;22.05;;;13.00;99.90;;;;;;5046047;28;20098;-65
2024/04/01 11:18:28;;;;;;;44.15;23.60;;;13.00;99.90;;;;;;5048765;28;20029;-65
2024/04/01 11:21:11;;;;;;;53.72;21.67;;;12.90;99.90;;;;;;5048553;28;20097;-65
2024/04/01 11:24:04;;;;;;;39.35;22.08;;;12.80;99.90;;;;;;5047155;28;20575;-66
2024/04/01 11:26:47;;;;;;;34.33;21.52;;;12.80;99.90;;;;;;5049327;28;20033;-65
2024/04/01 11:29:26;;;;;;;47.30;21.92;;;12.80;99.90;;;;;;5047121;28;20033;-65
2024/04/01 11:31:59;;;;;;;32.38;19.25;;;12.80;99.90;;;;;;5045166;28;20048;-65
2024/04/01 11:34:54;;;;;;;40.13;18.20;;;12.90;99.90;;;;;;5045587;28;20056;-65
2024/04/01 11:37:19;;;;;;;27.75;16.42;;;12.90;99.90;;;;;;5044804;28;20075;-65
2024/04/01 11:39:50;;;;;;;34.97;17.63;;;12.80;99.90;;;;;;5041701;28;20518;-66
2024/04/01 11:42:19;;;;;;;32.55;16.23;;;12.90;99.90;;;;;;5047686;28;20044;-66
2024/04/01 11:44:46;;;;;;;26.67;15.88;;;12.80;99.90;;;;;;5045118;28;20082;-66
2024/04/01 11:47:14;;;;;;;31.43;15.10;;;12.70;99.90;;;;;;5047896;28;20033;-66
2024/04/01 11:49:40;;;;;;;29.08;15.55;;;12.80;99.90;;;;;;5048237;28;20031;-66
2024/04/01 11:52:18;;;;;;;21.40;13.48;;;12.70;99.90;;;;;;5048519;28;20025;-66
2024/04/01 11:54:44;;;;;;;;;;;12.70;99.90;;;;;;5048412;28;20082;-66
2024/04/01 11:57:24;;;;;;;26.42;13.10;;;12.80;99.90;;;;;;5047620;28;19913;-66
2024/04/01 11:59:50;;;;;;;27.08;13.77;;;12.70;99.90;;;;;;5041444;28;20040;-66
2024/04/01 12:02:18;;;;;;;22.83;13.35;;;12.70;99.90;;;;;;5047220;28;20137;-66
2024/04/01 12:04:44;;;;;;;23.17;13.13;;;12.70;99.90;;;;;;5047162;28;20053;-66
2024/04/01 12:07:11;;;;;;;29.70;12.65;;;12.60;99.90;;;;;;5046606;28;20059;-66
2024/04/01 12:09:39;;;;;;;25.05;13.02;;;12.70;99.90;;;;;;5047511;28;20029;-66
2024/04/01 12:12:09;;;;;;;22.35;12.60;;;12.70;99.90;;;;;;5047045;28;20033;-66
2024/04/01 12:14:38;;;;;;;21.85;11.82;;;12.70;99.90;;;;;;5044084;28;20026;-66
2024/04/01 12:17:06;;;;;;;24.08;12.90;;;12.70;99.90;;;;;;5047342;28;20716;-66
2024/04/01 12:19:41;;;;;;;22.92;11.93;;;12.70;99.90;;;;;;5047969;28;20037;-66
2024/04/01 12:22:08;;;;;;;19.50;11.70;;;12.70;99.90;;;;;;5047328;28;20579;-66
2024/04/01 12:24:33;;;;;;;19.80;11.35;;;12.70;99.90;;;;;;5047349;28;20090;-65
2024/04/01 12:27:02;;;;;;;19.27;10.15;;;12.70;99.90;;;;;;5047194;28;20040;-66
2024/04/01 12:29:31;;;;;;;25.10;10.68;;;12.80;99.90;;;;;;5044063;28;20037;-66
2024/04/01 12:31:56;;;;;;;19.05;10.48;;;12.80;99.90;;;;;;5047092;28;20158;-66
2024/04/01 12:34:24;;;;;;;22.17;10.82;;;12.70;99.90;;;;;;5047641;28;20028;-66